Snohomish, WA

4:56 PM PDT on September 24, 2016 (GMT -0700)
APRSWXNET | | Change Station

Elev 183 ft 47.94 °N, 122.09 °W | Updated 36 minutes ago

Mostly Cloudy
Mostly Cloudy
67 °F
Feels Like 67 °F
N
0
Wind Variable Wind from WNW
Gusts 7.0 mph

Today
High -- | Low -- °F
--% Chance of Precip.
Yesterday
High -- | Low -- °F
Precip. -- in
Pressure 30.35 in
Visibility 10.0 miles
Clouds Mostly Cloudy 11000 ft
Dew Point 50 °F
Humidity 55%
Rainfall in
Snow Depth Not available.
6:58 AM 7:00 PM
Waning Crescent, 33% visible
METAR KPAE 242353Z 26003KT 10SM BKN110 16/09 A3035 RMK AO2 SLP278 T01610089 10172 20139 55009
Pressure 30.35 in
Visibility 10.0 miles
Clouds Mostly Cloudy 11000 ft
Dew Point 50 °F
Humidity 55%
Rainfall in
Snow Depth Not available.
6:58 AM 7:00 PM
Waning Crescent, 33% visible
METAR KPAE 242353Z 26003KT 10SM BKN110 16/09 A3035 RMK AO2 SLP278 T01610089 10172 20139 55009

10-Day Weather Forecast

Almanac

Astronomy

Sep. 24, 2016 Rise Set
Actual Time
Civil Twilight
Nautical Twilight
Astronomical Twilight
Moon
Length of Visible Light
Length of Day
Tomorrow will be .
, % of the Moon is Illuminated

Today's Extremes

State Highs State Lows

Community

WunderPhotos

Upload Photos

1,941,456 photos uploaded!

WunderBlog® & News

Nearby

Air Quality

  Air Quality AQ Index Pollutant
Not available.

Snow Depth

Station Depth Elevation

Earthquake Activity

City Distance Mag. Time & Date
Minimum magnitude displayed is 2.5.

Coastal Water Temperatures

Place Temperature

Stations

Nearby Weather Stations

Station Location Temp. Windchill Dew Point Humidity Wind Precip. Elev Updated Type
                   

Watches & Warnings

There are currently no watches in effect.